Sullivan City, Texas
Current Conditions -  °F | °C
As of 9:53 PM on Wednesday 22 Oct 2014 (Local Time) from KMFE Reporting Station
Overcast Overcast  
Wind Chill: 76°   Ceiling: 11000
Heat Index: 76°   Visibility: 10mi
Dew Point: 68°   Wind: 7mph
Humidity: 76%   Direction: 50°NE
Pressure: 30.03"   Gusts: NA
Location:  26.28°N, 98.56°W
Report Text: KMFE 230253Z 05006KT 10SM OVC110 24/20 A3003 RMK AO2 SLP168 T02440200 51015
Loading
Personal Weather Stations






























Interactive Weather Map
Tropical Storm Tracking
New forecast layout! Learn more

10-Day Weather Forecast

Advertisements
Track Severe Weather on mobile